KCIU/CIU METAR and TAF weather

Enter ICAO airport designator
Station Type Date Time Source
KCIU METAR 2019/12/14 11:13 UTC NOAA

KCIU 141113Z AUTO 29004KT 5SM BR OVC004 M01/M01 A2967 RMK AO2 FZRANO


Station Type Date Time Source
KCIU Decoded METAR 2019/12/14 11:13 UTC NOAA

Sault Ste Marie, Chippewa County International Airport, MI, United States (KCIU) 46-15N 084-28W
Dec 14, 2019 - 06:13 AM EST / 2019.12.14 1113 UTC
Wind: from the WNW (290 degrees) at 5 MPH (4 KT):0
Visibility: 5 mile(s):0
Sky conditions: overcast
Weather: mist
Temperature: 30 F (-1 C)
Windchill: 24 F (-4 C):1
Dew Point: 30 F (-1 C)
Relative Humidity: 100%
Pressure (altimeter): 29.67 in. Hg (1004 hPa)
ob: KCIU 141113Z AUTO 29004KT 5SM BR OVC004 M01/M01 A2967 RMK AO2 FZRANO
cycle: 11

Station Type Date Time Source
KCIU TAF UTC NOAA

Error!

Example: see airport list